Time;durP1;ratioP1;P1;durP2;ratioP2;P2;SDS_P1;SDS_P2;PMS_P1;PMS_P2;Temp;Humidity;BMP_temperature;BMP_pressure;BME280_temperature;BME280_humidity;BME280_pressure;Samples;Min_cycle;Max_cycle;Signal;HPM_P1;HPM_P2
2021/06/18 04:12:22;;;;;;;0.10;0.10;;;22.10;86.00;;;;;;5041708;23;20234;-77
2021/06/18 04:14:50;;;;;;;0.20;0.20;;;22.20;86.20;;;;;;4936010;29;20229;-77
2021/06/18 04:17:18;;;;;;;0.10;0.10;;;22.20;86.20;;;;;;4935880;29;20222;-75
2021/06/18 04:19:46;;;;;;;0.20;0.20;;;22.30;86.20;;;;;;4936232;29;20668;-76
2021/06/18 04:22:20;;;;;;;0.10;0.10;;;22.30;86.20;;;;;;4935962;29;20766;-76
2021/06/18 04:24:48;;;;;;;0.10;0.10;;;22.30;86.20;;;;;;4952001;23;20769;-81
2021/06/18 04:27:16;;;;;;;0.20;0.20;;;22.30;86.40;;;;;;4939026;29;20210;-81
2021/06/18 04:29:45;;;;;;;0.20;0.20;;;22.30;86.20;;;;;;4939030;29;20675;-81
2021/06/18 04:32:13;;;;;;;0.10;0.10;;;22.50;86.10;;;;;;4939130;29;20335;-81
2021/06/18 04:34:42;;;;;;;0.20;0.20;;;22.60;86.30;;;;;;4939387;29;20297;-82
2021/06/18 04:37:10;;;;;;;0.10;0.10;;;22.60;86.20;;;;;;4938363;29;20273;-81
2021/06/18 04:39:38;;;;;;;0.20;0.20;;;22.60;86.00;;;;;;4933238;29;20206;-82
2021/06/18 04:42:06;;;;;;;0.10;0.10;;;22.70;85.60;;;;;;4947241;29;20217;-81
2021/06/18 04:44:34;;;;;;;0.20;0.20;;;22.70;85.80;;;;;;4956234;29;20599;-82
2021/06/18 04:47:04;;;;;;;0.20;0.20;;;22.70;86.00;;;;;;4958802;29;20733;-82
2021/06/18 04:49:32;;;;;;;0.20;0.20;;;22.80;85.80;;;;;;4958250;28;20257;-80
2021/06/18 04:52:00;;;;;;;0.10;0.10;;;22.80;85.70;;;;;;4958323;29;20297;-80
2021/06/18 04:54:28;;;;;;;0.10;0.10;;;22.80;85.90;;;;;;4958237;29;20288;-80
2021/06/18 04:56:56;;;;;;;0.20;0.20;;;22.90;85.80;;;;;;4958359;29;20678;-82
2021/06/18 04:59:24;;;;;;;0.20;0.20;;;22.90;86.60;;;;;;4958931;29;20206;-82
2021/06/18 05:01:52;;;;;;;0.20;0.20;;;23.00;85.60;;;;;;4958955;29;20209;-81
2021/06/18 05:04:22;;;;;;;0.20;0.20;;;23.00;85.70;;;;;;4918832;29;20218;-82
2021/06/18 05:06:50;;;;;;;0.10;0.10;;;23.00;85.90;;;;;;4901056;29;20373;-82
2021/06/18 05:09:18;;;;;;;0.10;0.10;;;23.10;85.60;;;;;;4931452;29;20206;-81
2021/06/18 05:11:45;;;;;;;0.10;0.10;;;23.20;85.30;;;;;;4942926;29;20663;-82
2021/06/18 05:14:13;;;;;;;0.10;0.10;;;23.30;85.10;;;;;;4940450;29;20230;-79
2021/06/18 05:16:42;;;;;;;0.20;0.20;;;23.30;85.30;;;;;;4918686;29;20258;-75
2021/06/18 05:19:11;;;;;;;0.10;0.10;;;23.40;85.30;;;;;;4916800;29;20230;-77
2021/06/18 05:21:40;;;;;;;0.20;0.20;;;23.50;85.90;;;;;;4918888;29;20206;-79
2021/06/18 05:24:09;;;;;;;0.10;0.10;;;23.60;85.50;;;;;;4917669;29;20289;-76
2021/06/18 05:26:37;;;;;;;0.10;0.10;;;23.70;85.30;;;;;;4916233;29;20268;-76
2021/06/18 05:29:04;;;;;;;0.10;0.10;;;23.80;84.80;;;;;;4915749;29;20281;-76
2021/06/18 05:31:32;;;;;;;0.20;0.20;;;23.80;85.70;;;;;;4915139;29;20293;-75
2021/06/18 05:34:00;;;;;;;0.10;0.10;;;23.90;86.90;;;;;;4915774;29;20226;-77
2021/06/18 05:36:28;;;;;;;0.20;0.20;;;24.00;88.60;;;;;;4918445;29;20202;-80
2021/06/18 05:38:57;;;;;;;0.10;0.10;;;24.00;86.20;;;;;;4909776;29;20226;-76
2021/06/18 05:41:26;;;;;;;0.10;0.10;;;24.00;85.80;;;;;;4896633;29;20313;-76
2021/06/18 05:43:54;;;;;;;0.10;0.10;;;24.10;85.80;;;;;;4891842;29;20401;-76
2021/06/18 05:46:22;;;;;;;0.10;0.10;;;24.10;87.80;;;;;;4910933;29;20305;-78
2021/06/18 05:48:49;;;;;;;0.10;0.10;;;24.20;84.20;;;;;;4926321;29;20201;-77
2021/06/18 05:51:18;;;;;;;0.10;0.10;;;24.20;85.60;;;;;;4919320;29;20624;-77
2021/06/18 05:53:45;;;;;;;0.20;0.20;;;24.30;83.40;;;;;;4926042;29;20613;-77
2021/06/18 05:56:15;;;;;;;0.10;0.10;;;24.40;83.80;;;;;;4923707;29;20668;-76
2021/06/18 05:58:43;;;;;;;0.10;0.10;;;24.40;85.70;;;;;;4930485;29;20247;-81
2021/06/18 06:01:10;;;;;;;0.10;0.10;;;24.60;86.20;;;;;;4930177;29;20235;-82
2021/06/18 06:03:57;;;;;;;0.10;0.10;;;24.70;82.90;;;;;;4931740;29;20233;-82
2021/06/18 06:06:26;;;;;;;0.10;0.10;;;24.80;83.00;;;;;;4932426;29;20223;-82
2021/06/18 06:08:55;;;;;;;0.10;0.10;;;24.80;81.60;;;;;;4932904;29;20207;-82
2021/06/18 06:11:26;;;;;;;0.10;0.10;;;24.80;82.00;;;;;;4932822;29;20215;-82
2021/06/18 06:13:59;;;;;;;0.20;0.20;;;24.90;81.80;;;;;;4932935;29;20755;-82
2021/06/18 06:16:27;;;;;;;0.10;0.10;;;25.10;82.40;;;;;;4933104;29;20219;-82
2021/06/18 06:18:56;;;;;;;0.10;0.10;;;25.10;80.10;;;;;;4933703;29;20665;-81
2021/06/18 06:21:24;;;;;;;0.20;0.20;;;25.20;80.20;;;;;;4933738;29;20202;-83
2021/06/18 06:23:52;;;;;;;0.10;0.10;;;25.30;80.50;;;;;;4935639;29;20707;-83
2021/06/18 06:26:21;;;;;;;0.10;0.10;;;25.40;79.80;;;;;;4934238;29;20211;-82
2021/06/18 06:28:50;;;;;;;0.10;0.10;;;25.50;81.80;;;;;;4933555;29;20573;-82
2021/06/18 06:31:18;;;;;;;0.10;0.10;;;25.80;79.80;;;;;;4933098;29;20246;-82
2021/06/18 06:33:46;;;;;;;0.10;0.10;;;25.70;79.10;;;;;;4933285;29;20591;-82
2021/06/18 06:36:14;;;;;;;0.10;0.10;;;25.80;79.40;;;;;;4932682;29;20206;-82
2021/06/18 06:38:42;;;;;;;0.10;0.10;;;25.90;78.70;;;;;;4933526;29;20706;-82
2021/06/18 06:41:09;;;;;;;0.10;0.10;;;26.00;78.90;;;;;;4933014;29;20266;-81
2021/06/18 06:43:37;;;;;;;0.10;0.10;;;26.00;78.40;;;;;;4932947;29;20609;-82
2021/06/18 06:46:06;;;;;;;0.10;0.10;;;26.10;77.40;;;;;;4932654;29;20258;-82
2021/06/18 06:48:34;;;;;;;0.10;0.10;;;26.20;77.70;;;;;;4933032;29;20293;-83
2021/06/18 06:51:02;;;;;;;0.10;0.10;;;26.30;78.30;;;;;;4932017;29;20278;-83
2021/06/18 06:53:30;;;;;;;0.10;0.10;;;26.50;77.70;;;;;;4932378;29;20602;-83
2021/06/18 06:55:58;;;;;;;0.10;0.10;;;26.70;78.40;;;;;;4932218;29;20256;-82
2021/06/18 06:58:26;;;;;;;0.10;0.10;;;26.70;76.60;;;;;;4932844;29;20241;-83
2021/06/18 07:00:54;;;;;;;0.10;0.10;;;26.70;75.90;;;;;;4932499;29;20206;-82
2021/06/18 07:03:23;;;;;;;0.10;0.10;;;26.80;76.70;;;;;;4932792;29;20235;-82
2021/06/18 07:05:51;;;;;;;0.10;0.10;;;26.70;76.90;;;;;;4930328;29;20297;-82
2021/06/18 07:08:22;;;;;;;0.10;0.10;;;26.90;75.90;;;;;;4929481;29;20567;-83
2021/06/18 07:10:51;;;;;;;0.10;0.10;;;27.10;75.70;;;;;;4928001;29;20619;-83
2021/06/18 07:13:18;;;;;;;0.10;0.10;;;27.10;76.70;;;;;;4926645;29;20632;-83
2021/06/18 07:15:47;;;;;;;0.10;0.10;;;27.30;75.90;;;;;;4927042;29;20268;-83
2021/06/18 07:18:15;;;;;;;0.10;0.10;;;27.70;75.20;;;;;;4926034;29;20228;-82
2021/06/18 07:20:45;;;;;;;0.10;0.10;;;;;;;;;;4925165;29;20247;-83
2021/06/18 07:23:13;;;;;;;0.10;0.10;;;27.40;76.30;;;;;;4926306;29;20238;-84
2021/06/18 07:25:43;;;;;;;0.10;0.10;;;27.50;73.70;;;;;;4929115;29;20234;-84
2021/06/18 07:28:12;;;;;;;0.10;0.10;;;27.60;75.50;;;;;;4928183;29;20208;-84
2021/06/18 07:30:40;;;;;;;0.10;0.10;;;27.70;73.60;;;;;;4928682;29;20628;-84
2021/06/18 07:33:09;;;;;;;0.10;0.10;;;27.80;70.10;;;;;;4927744;29;20199;-83
2021/06/18 07:35:37;;;;;;;0.10;0.10;;;27.80;68.60;;;;;;4927181;29;20683;-83
2021/06/18 07:38:06;;;;;;;0.10;0.10;;;27.90;68.90;;;;;;4928074;29;20261;-84
2021/06/18 07:40:35;;;;;;;0.10;0.10;;;28.30;85.70;;;;;;4927707;29;20230;-83
2021/06/18 07:43:03;;;;;;;0.10;0.10;;;28.00;65.90;;;;;;4928516;29;20233;-84
2021/06/18 07:45:31;;;;;;;0.10;0.10;;;28.00;66.30;;;;;;4928487;29;20254;-84
2021/06/18 07:47:59;;;;;;;0.10;0.10;;;28.10;66.20;;;;;;4929665;29;20230;-84
2021/06/18 07:50:27;;;;;;;0.10;0.10;;;28.10;64.80;;;;;;4929388;29;20195;-84
2021/06/18 07:52:55;;;;;;;0.10;0.10;;;28.10;65.00;;;;;;4929857;29;20203;-82
2021/06/18 07:55:25;;;;;;;0.10;0.10;;;28.20;65.20;;;;;;4932715;29;20637;-83
2021/06/18 07:57:53;;;;;;;0.10;0.10;;;28.10;64.60;;;;;;4932531;29;20217;-83
2021/06/18 08:00:22;;;;;;;0.10;0.10;;;28.30;63.90;;;;;;4931227;29;20255;-83
2021/06/18 08:02:50;;;;;;;0.10;0.10;;;28.30;65.10;;;;;;4929129;29;20207;-83
2021/06/18 08:05:18;;;;;;;0.10;0.10;;;28.40;65.50;;;;;;4933753;29;20259;-81
2021/06/18 08:07:47;;;;;;;0.10;0.10;;;28.40;64.30;;;;;;4933947;29;20285;-81
2021/06/18 08:10:17;;;;;;;0.10;0.10;;;28.00;64.00;;;;;;4932929;29;20207;-82
2021/06/18 08:12:48;;;;;;;0.10;0.10;;;28.50;64.20;;;;;;4930276;29;20266;-82
2021/06/18 08:15:16;;;;;;;0.10;0.10;;;28.60;64.00;;;;;;4927875;29;20254;-82
2021/06/18 08:17:46;;;;;;;0.10;0.10;;;28.50;63.40;;;;;;4928951;29;20206;-83
2021/06/18 08:20:16;;;;;;;0.10;0.10;;;28.70;63.30;;;;;;4928432;29;20254;-83
2021/06/18 08:22:44;;;;;;;0.10;0.10;;;28.70;63.30;;;;;;4928706;29;20217;-82
2021/06/18 08:25:12;;;;;;;0.10;0.10;;;28.80;62.90;;;;;;4927294;29;20234;-82
2021/06/18 08:27:41;;;;;;;0.00;0.00;;;28.90;63.80;;;;;;4928386;29;20206;-83
2021/06/18 08:30:11;;;;;;;0.00;0.00;;;28.90;63.10;;;;;;4928503;29;20239;-83
2021/06/18 08:32:48;;;;;;;0.08;0.08;;;29.00;62.20;;;;;;4928823;29;20200;-83
2021/06/18 08:35:16;;;;;;;0.05;0.05;;;28.90;61.80;;;;;;4928512;29;20227;-83
2021/06/18 08:37:45;;;;;;;0.10;0.10;;;29.00;63.30;;;;;;4928183;29;20211;-83
2021/06/18 08:40:14;;;;;;;0.10;0.10;;;29.00;62.10;;;;;;4927363;29;20226;-83
2021/06/18 08:42:43;;;;;;;0.00;0.00;;;29.10;63.40;;;;;;4928282;29;20213;-82
2021/06/18 08:45:13;;;;;;;0.10;0.10;;;29.10;62.50;;;;;;4927001;29;20230;-81
2021/06/18 08:47:41;;;;;;;0.10;0.10;;;29.20;61.30;;;;;;4926280;29;20222;-82
2021/06/18 08:50:09;;;;;;;0.10;0.10;;;29.20;62.90;;;;;;4923580;29;20210;-82
2021/06/18 08:52:40;;;;;;;0.00;0.00;;;29.30;61.70;;;;;;4923042;29;20217;-82
2021/06/18 08:55:09;;;;;;;0.10;0.10;;;29.30;61.80;;;;;;4921935;29;20227;-82
2021/06/18 08:57:37;;;;;;;0.10;0.10;;;29.30;62.60;;;;;;4922760;29;20207;-82
2021/06/18 09:00:07;;;;;;;0.10;0.10;;;29.30;62.40;;;;;;4927116;29;20645;-83
2021/06/18 09:02:36;;;;;;;0.10;0.10;;;29.40;63.20;;;;;;4926800;29;20675;-83
2021/06/18 09:05:08;;;;;;;0.10;0.10;;;29.40;62.90;;;;;;4926528;29;20805;-83
2021/06/18 09:07:54;;;;;;;0.10;0.10;;;29.40;63.00;;;;;;4926968;29;20625;-83
2021/06/18 09:10:34;;;;;;;0.00;0.00;;;29.30;62.90;;;;;;4927640;29;20214;-83
2021/06/18 09:13:13;;;;;;;0.00;0.00;;;29.30;62.90;;;;;;4926738;29;20643;-83
2021/06/18 09:15:44;;;;;;;0.10;0.10;;;29.30;63.20;;;;;;4926629;29;20203;-82
2021/06/18 09:18:30;;;;;;;0.10;0.10;;;29.50;62.40;;;;;;4926200;29;20661;-81
2021/06/18 09:21:15;;;;;;;0.10;0.10;;;29.60;62.60;;;;;;4927555;29;20229;-83
2021/06/18 09:23:44;;;;;;;0.00;0.00;;;29.60;61.80;;;;;;4927569;29;20305;-83
2021/06/18 09:26:30;;;;;;;0.10;0.10;;;29.60;61.60;;;;;;4927999;29;20211;-83
2021/06/18 09:29:09;;;;;;;0.10;0.10;;;29.70;61.20;;;;;;4927182;29;20214;-83
2021/06/18 09:31:40;;;;;;;0.10;0.10;;;29.60;60.70;;;;;;4927525;29;20269;-83
2021/06/18 09:34:11;;;;;;;0.10;0.10;;;29.70;61.70;;;;;;4927583;29;20227;-83
2021/06/18 09:36:40;;;;;;;0.00;0.00;;;29.80;61.50;;;;;;4930804;29;20238;-82
2021/06/18 09:39:13;;;;;;;0.10;0.10;;;29.80;59.60;;;;;;4932034;29;20234;-82
2021/06/18 09:41:42;;;;;;;0.10;0.10;;;29.90;59.70;;;;;;4932079;29;20207;-83
2021/06/18 09:44:13;;;;;;;0.10;0.10;;;29.90;59.90;;;;;;4931717;29;20251;-83
2021/06/18 09:46:42;;;;;;;0.10;0.10;;;29.90;59.70;;;;;;4932193;29;20210;-83
2021/06/18 09:49:15;;;;;;;0.00;0.00;;;29.80;61.10;;;;;;4932118;29;20206;-83
2021/06/18 09:51:56;;;;;;;0.00;0.00;;;29.90;59.70;;;;;;4932508;29;20198;-83
2021/06/18 09:54:31;;;;;;;0.10;0.10;;;29.90;59.60;;;;;;4932344;29;20294;-82
2021/06/18 09:57:10;;;;;;;0.10;0.10;;;30.00;60.30;;;;;;4932602;29;20206;-83
2021/06/18 09:59:48;;;;;;;0.00;0.00;;;30.00;61.30;;;;;;4932872;29;20340;-83
2021/06/18 10:02:18;;;;;;;0.10;0.10;;;30.20;60.20;;;;;;4932382;29;20206;-82
2021/06/18 10:04:51;;;;;;;0.00;0.00;;;30.30;60.40;;;;;;4932477;29;20714;-82
2021/06/18 10:07:27;;;;;;;0.00;0.00;;;30.30;60.40;;;;;;4931755;29;20207;-83
2021/06/18 10:10:00;;;;;;;0.00;0.00;;;30.30;59.20;;;;;;4933998;29;20313;-82
2021/06/18 10:12:29;;;;;;;0.00;0.00;;;30.30;58.90;;;;;;4935553;29;20239;-82
2021/06/18 10:15:04;;;;;;;0.10;0.10;;;30.40;58.50;;;;;;4937229;29;20226;-82
2021/06/18 10:17:33;;;;;;;0.10;0.10;;;30.40;58.70;;;;;;4938205;29;20211;-82
2021/06/18 10:20:05;;;;;;;0.10;0.10;;;30.50;59.30;;;;;;4937448;29;20218;-83
2021/06/18 10:22:35;;;;;;;0.10;0.10;;;30.50;58.50;;;;;;4937065;29;20262;-82
2021/06/18 10:25:07;;;;;;;0.00;0.00;;;30.50;57.60;;;;;;4929146;23;20243;-79
2021/06/18 10:27:41;;;;;;;0.10;0.10;;;30.40;57.60;;;;;;4902441;29;20234;-79
2021/06/18 10:30:30;;;;;;;0.00;0.00;;;30.50;59.40;;;;;;4902355;29;20236;-79
2021/06/18 10:32:59;;;;;;;0.00;0.00;;;30.50;57.00;;;;;;4902893;29;20211;-79
2021/06/18 10:35:45;;;;;;;0.00;0.00;;;30.60;57.00;;;;;;4902223;29;20287;-79
2021/06/18 10:38:26;;;;;;;0.10;0.10;;;30.50;57.30;;;;;;4902839;29;20211;-80
2021/06/18 10:40:55;;;;;;;0.10;0.10;;;30.50;56.20;;;;;;4902128;29;20354;-79
2021/06/18 10:43:32;;;;;;;0.10;0.10;;;30.60;57.60;;;;;;4902381;29;20561;-79
2021/06/18 10:46:06;;;;;;;0.00;0.00;;;30.60;57.50;;;;;;4901807;29;20302;-80
2021/06/18 10:48:57;;;;;;;0.05;0.05;;;30.60;58.00;;;;;;4902380;29;20207;-79
2021/06/18 10:51:36;;;;;;;0.00;0.00;;;30.70;58.30;;;;;;4902766;29;20664;-78
2021/06/18 10:54:07;;;;;;;0.10;0.10;;;30.70;57.70;;;;;;4902440;29;20290;-79
2021/06/18 10:56:55;;;;;;;0.00;0.00;;;30.80;58.80;;;;;;4902874;29;20271;-77
2021/06/18 10:59:38;;;;;;;0.00;0.00;;;30.80;58.70;;;;;;4903197;29;20208;-79
2021/06/18 11:02:31;;;;;;;0.00;0.00;;;30.90;58.80;;;;;;4902776;29;20227;-79
2021/06/18 11:05:01;;;;;;;0.00;0.00;;;30.90;58.30;;;;;;4900209;29;20302;-79
2021/06/18 11:07:31;;;;;;;0.00;0.00;;;31.00;56.70;;;;;;4902502;29;20203;-79
2021/06/18 11:10:01;;;;;;;0.00;0.00;;;30.90;57.10;;;;;;4903687;29;20203;-79
2021/06/18 11:12:40;;;;;;;0.00;0.00;;;30.90;56.80;;;;;;4904941;29;20203;-75
2021/06/18 11:15:24;;;;;;;0.00;0.00;;;30.90;56.50;;;;;;4909780;29;20223;-77
2021/06/18 11:18:00;;;;;;;0.00;0.00;;;31.00;56.60;;;;;;4907746;29;20263;-76
2021/06/18 11:20:59;;;;;;;0.00;0.00;;;31.00;56.30;;;;;;4909547;29;20226;-76
2021/06/18 11:23:32;;;;;;;0.00;0.00;;;31.10;58.00;;;;;;4909087;29;20298;-79
2021/06/18 11:26:03;;;;;;;0.00;0.00;;;31.10;55.00;;;;;;4905409;29;20222;-79
2021/06/18 11:28:47;;;;;;;0.00;0.00;;;31.20;55.90;;;;;;4901155;29;20223;-79
2021/06/18 11:31:38;;;;;;;0.00;0.00;;;31.20;54.20;;;;;;4901411;29;20212;-78
2021/06/18 11:34:06;;;;;;;0.00;0.00;;;31.20;54.30;;;;;;4896919;29;20708;-79
2021/06/18 11:36:44;;;;;;;0.00;0.00;;;31.20;55.70;;;;;;4900913;29;20211;-77
2021/06/18 11:39:19;;;;;;;0.00;0.00;;;31.30;55.30;;;;;;4901102;29;20203;-80
2021/06/18 11:41:50;;;;;;;0.00;0.00;;;31.40;55.90;;;;;;4900823;29;20719;-79
2021/06/18 11:44:21;;;;;;;0.00;0.00;;;31.50;56.00;;;;;;4900771;29;20227;-79
2021/06/18 11:46:55;;;;;;;0.00;0.00;;;31.60;56.00;;;;;;4901297;29;20207;-80
2021/06/18 11:49:26;;;;;;;0.00;0.00;;;31.70;55.40;;;;;;4901307;29;20220;-79
2021/06/18 11:52:00;;;;;;;0.00;0.00;;;31.70;54.70;;;;;;4901002;29;20203;-80
2021/06/18 11:54:31;;;;;;;0.00;0.00;;;31.70;55.10;;;;;;4900468;29;20278;-80
2021/06/18 11:57:01;;;;;;;0.00;0.00;;;31.90;54.80;;;;;;4900650;29;20290;-79
2021/06/18 11:59:29;;;;;;;0.00;0.00;;;31.90;54.60;;;;;;4900223;29;20278;-79
2021/06/18 12:01:57;;;;;;;0.00;0.00;;;32.00;54.20;;;;;;4901085;29;20226;-79
2021/06/18 12:04:27;;;;;;;0.10;0.10;;;32.10;53.40;;;;;;4902068;29;20258;-78
2021/06/18 12:06:55;;;;;;;0.00;0.00;;;32.20;54.60;;;;;;4903194;29;20261;-80
2021/06/18 12:09:23;;;;;;;0.00;0.00;;;32.30;53.60;;;;;;4903658;29;20215;-80
2021/06/18 12:12:01;;;;;;;0.00;0.00;;;32.50;54.30;;;;;;4903687;29;20664;-80
2021/06/18 12:14:35;;;;;;;0.00;0.00;;;32.70;54.60;;;;;;4900409;29;20231;-79
2021/06/18 12:17:03;;;;;;;0.00;0.00;;;32.80;54.40;;;;;;4899462;29;20207;-80
2021/06/18 12:19:33;;;;;;;0.10;0.10;;;33.00;54.60;;;;;;4899686;29;20258;-77
2021/06/18 12:22:05;;;;;;;0.05;0.05;;;33.10;53.50;;;;;;4899852;29;20226;-80
2021/06/18 12:24:35;;;;;;;0.00;0.00;;;33.40;53.40;;;;;;4900090;29;20238;-79
2021/06/18 12:27:08;;;;;;;0.00;0.00;;;33.60;52.70;;;;;;4899977;29;20215;-80
2021/06/18 12:29:38;;;;;;;0.00;0.00;;;33.90;51.80;;;;;;4900131;29;20218;-80
2021/06/18 12:32:08;;;;;;;0.00;0.00;;;34.40;52.50;;;;;;4900158;29;20206;-80
2021/06/18 12:34:37;;;;;;;0.00;0.00;;;34.70;51.90;;;;;;4900404;29;20227;-79
2021/06/18 12:37:07;;;;;;;0.00;0.00;;;35.10;50.90;;;;;;4899760;29;20212;-80
2021/06/18 12:39:53;;;;;;;0.00;0.00;;;35.80;50.40;;;;;;4899860;29;20207;-80
2021/06/18 12:42:28;;;;;;;0.00;0.00;;;36.60;48.90;;;;;;4899631;29;20262;-80
2021/06/18 12:45:13;;;;;;;0.00;0.00;;;37.40;48.10;;;;;;4899922;29;20226;-80
2021/06/18 12:47:43;;;;;;;0.00;0.00;;;38.00;46.30;;;;;;4899903;29;20215;-80
2021/06/18 12:50:33;;;;;;;0.00;0.00;;;38.70;45.10;;;;;;4900409;29;20211;-80
2021/06/18 12:53:04;;;;;;;0.00;0.00;;;39.40;44.80;;;;;;4900163;29;20203;-81
2021/06/18 12:55:33;;;;;;;0.00;0.00;;;39.70;44.30;;;;;;4899249;29;20234;-80
2021/06/18 12:58:11;;;;;;;0.00;0.00;;;40.60;43.90;;;;;;4900214;29;20242;-81
2021/06/18 13:00:47;;;;;;;0.00;0.00;;;40.90;43.20;;;;;;4900828;29;20206;-80
2021/06/18 13:03:37;;;;;;;0.00;0.00;;;41.80;41.70;;;;;;4900769;29;20270;-81
2021/06/18 13:06:06;;;;;;;0.00;0.00;;;42.30;40.70;;;;;;4900997;29;20277;-80
2021/06/18 13:08:43;;;;;;;0.00;0.00;;;42.90;39.90;;;;;;4901283;29;20226;-81
2021/06/18 13:11:24;;;;;;;0.00;0.00;;;43.40;38.80;;;;;;4900816;29;20209;-80
2021/06/18 13:16:46;;;;;;;0.00;0.00;;;44.00;37.80;;;;;;5172719;27;20301;-77
2021/06/18 13:19:16;;;;;;;0.00;0.00;;;44.60;36.00;;;;;;5160136;27;20198;-80
2021/06/18 13:21:52;;;;;;;0.00;0.00;;;44.30;36.00;;;;;;5155068;27;20198;-80
2021/06/18 13:24:22;;;;;;;0.00;0.00;;;44.60;35.30;;;;;;5154246;27;20218;-80
2021/06/18 13:26:52;;;;;;;0.00;0.00;;;44.30;36.40;;;;;;5153905;27;20610;-80
2021/06/18 13:29:22;;;;;;;0.00;0.00;;;44.60;35.50;;;;;;5159630;27;20541;-78
2021/06/18 13:31:55;;;;;;;0.00;0.00;;;44.80;35.00;;;;;;5163832;27;20190;-78
2021/06/18 13:34:26;;;;;;;0.00;0.00;;;45.20;35.10;;;;;;5164148;27;20218;-78
2021/06/18 13:37:03;;;;;;;0.00;0.00;;;45.50;35.00;;;;;;5163424;27;20231;-78
2021/06/18 13:39:37;;;;;;;0.00;0.00;;;45.60;34.10;;;;;;5165140;27;20251;-78
2021/06/18 13:42:06;;;;;;;0.00;0.00;;;46.00;33.40;;;;;;5164063;27;20194;-78
2021/06/18 13:44:34;;;;;;;0.00;0.00;;;46.10;34.90;;;;;;5163198;27;20249;-78
2021/06/18 13:47:04;;;;;;;0.00;0.00;;;46.00;32.80;;;;;;5163000;27;20227;-78
2021/06/18 13:49:32;;;;;;;0.00;0.00;;;45.50;33.70;;;;;;5161807;27;20200;-78
2021/06/18 13:52:00;;;;;;;0.00;0.00;;;44.90;34.90;;;;;;5158071;27;20227;-78
2021/06/18 13:54:28;;;;;;;0.00;0.00;;;43.80;34.70;;;;;;5155841;27;20214;-78
2021/06/18 13:56:57;;;;;;;0.00;0.00;;;42.40;35.60;;;;;;5155163;27;20247;-78
2021/06/18 13:59:25;;;;;;;0.00;0.00;;;41.50;37.10;;;;;;5155398;27;20232;-77
2021/06/18 14:01:54;;;;;;;0.00;0.00;;;40.90;38.70;;;;;;5154052;27;20213;-78
2021/06/18 14:04:24;;;;;;;0.00;0.00;;;39.90;38.40;;;;;;5154231;27;20585;-78
2021/06/18 14:06:55;;;;;;;0.00;0.00;;;39.30;39.30;;;;;;5153605;27;20246;-78
2021/06/18 14:09:23;;;;;;;0.00;0.00;;;38.90;41.90;;;;;;5153774;27;20654;-78
2021/06/18 14:11:51;;;;;;;0.00;0.00;;;38.50;39.70;;;;;;5152765;27;20203;-78
2021/06/18 14:14:20;;;;;;;0.00;0.00;;;37.40;43.00;;;;;;5153529;27;20226;-78
2021/06/18 14:16:52;;;;;;;0.00;0.00;;;36.80;43.60;;;;;;5153441;27;20247;-77
2021/06/18 14:19:20;;;;;;;0.00;0.00;;;36.70;44.90;;;;;;5159046;27;20198;-77
2021/06/18 14:21:49;;;;;;;0.00;0.00;;;36.60;44.00;;;;;;5156542;27;20202;-76
2021/06/18 14:24:18;;;;;;;0.00;0.00;;;36.30;45.20;;;;;;5153140;27;20311;-77
2021/06/18 14:26:46;;;;;;;0.00;0.00;;;36.10;46.50;;;;;;5146320;27;20727;-77
2021/06/18 14:29:14;;;;;;;0.00;0.00;;;35.70;45.70;;;;;;5138311;27;20224;-77
2021/06/18 14:31:42;;;;;;;0.00;0.00;;;35.60;47.00;;;;;;5140395;27;20194;-77
2021/06/18 14:34:10;;;;;;;0.00;0.00;;;35.40;46.30;;;;;;5136224;27;20214;-75
2021/06/18 14:36:38;;;;;;;0.00;0.00;;;35.20;49.80;;;;;;5136426;27;20249;-77
2021/06/18 14:39:10;;;;;;;0.00;0.00;;;34.90;50.20;;;;;;5136328;27;20256;-77
2021/06/18 14:41:38;;;;;;;0.00;0.00;;;34.60;49.90;;;;;;5141671;27;20236;-83
2021/06/18 14:44:06;;;;;;;0.00;0.00;;;34.30;50.10;;;;;;5142044;27;20222;-81
2021/06/18 14:46:34;;;;;;;0.00;0.00;;;33.90;50.40;;;;;;5139398;27;20195;-77
2021/06/18 14:49:02;;;;;;;0.00;0.00;;;33.70;51.30;;;;;;5136439;27;20191;-77
2021/06/18 14:51:31;;;;;;;0.00;0.00;;;33.40;49.70;;;;;;5139225;27;20203;-78
2021/06/18 14:53:59;;;;;;;0.00;0.00;;;33.20;49.30;;;;;;5135532;27;20215;-78
2021/06/18 14:56:28;;;;;;;0.00;0.00;;;33.10;49.00;;;;;;5137364;27;20716;-76
2021/06/18 14:58:56;;;;;;;0.00;0.00;;;33.10;48.90;;;;;;5144218;27;20541;-77
2021/06/18 15:01:24;;;;;;;0.00;0.00;;;33.00;48.90;;;;;;5134525;27;20200;-79
2021/06/18 15:03:52;;;;;;;0.00;0.00;;;33.10;57.90;;;;;;5123444;27;20195;-76
2021/06/18 15:06:21;;;;;;;0.00;0.00;;;33.10;48.90;;;;;;5134768;27;20187;-76
2021/06/18 15:08:49;;;;;;;0.00;0.00;;;32.90;52.20;;;;;;5135080;27;20203;-75
2021/06/18 15:11:18;;;;;;;0.00;0.00;;;;;;;;;;5137593;27;20252;-76
2021/06/18 15:13:48;;;;;;;0.00;0.00;;;32.30;59.00;;;;;;5135173;27;20255;-75
2021/06/18 15:16:16;;;;;;;0.00;0.00;;;32.40;48.90;;;;;;5134704;27;20760;-76
2021/06/18 15:18:44;;;;;;;0.00;0.00;;;32.50;49.60;;;;;;5137450;27;20289;-77
2021/06/18 15:21:12;;;;;;;0.00;0.00;;;;;;;;;;5141670;27;20195;-84
2021/06/18 15:23:41;;;;;;;0.00;0.00;;;32.70;59.90;;;;;;5137524;27;20195;-75
2021/06/18 15:26:09;;;;;;;0.00;0.00;;;32.70;49.70;;;;;;5140624;27;20190;-80
2021/06/18 15:28:37;;;;;;;0.00;0.00;;;32.90;49.40;;;;;;5140610;27;20203;-83
2021/06/18 15:31:06;;;;;;;0.00;0.00;;;33.10;50.50;;;;;;5140469;27;20195;-80
2021/06/18 15:33:34;;;;;;;0.00;0.00;;;;;;;;;;5143123;27;20220;-78
2021/06/18 15:36:03;;;;;;;0.00;0.00;;;33.10;49.00;;;;;;5141299;27;20256;-82
2021/06/18 15:38:31;;;;;;;0.00;0.00;;;33.10;49.30;;;;;;5143426;27;20224;-82
2021/06/18 15:40:59;;;;;;;0.00;0.00;;;33.00;48.80;;;;;;5146429;27;20203;-78
2021/06/18 15:43:35;;;;;;;0.00;0.00;;;33.00;58.90;;;;;;5140048;27;20207;-75
2021/06/18 15:46:06;;;;;;;0.00;0.00;;;32.90;48.90;;;;;;5136652;27;20537;-80
2021/06/18 15:48:35;;;;;;;0.00;0.00;;;32.80;49.30;;;;;;5137999;27;20675;-78
2021/06/18 15:51:05;;;;;;;0.00;0.00;;;32.80;49.60;;;;;;5140621;27;20199;-78
2021/06/18 15:53:33;;;;;;;0.00;0.00;;;32.70;49.80;;;;;;5139358;27;20606;-79
2021/06/18 15:56:01;;;;;;;0.00;0.00;;;32.80;50.00;;;;;;5135118;27;20215;-77
2021/06/18 15:58:29;;;;;;;0.00;0.00;;;32.80;49.80;;;;;;5131348;27;20195;-77
2021/06/18 16:00:57;;;;;;;0.00;0.00;;;32.80;49.20;;;;;;5138700;27;20476;-78
2021/06/18 16:03:26;;;;;;;0.00;0.00;;;32.80;49.60;;;;;;5139978;27;20667;-77
2021/06/18 16:05:55;;;;;;;0.10;0.10;;;32.90;49.40;;;;;;5135614;27;20280;-77
2021/06/18 16:08:23;;;;;;;0.70;0.70;;;33.20;50.40;;;;;;5136878;27;20259;-77
2021/06/18 16:10:51;;;;;;;0.10;0.10;;;34.30;49.10;;;;;;5135528;27;20712;-75
2021/06/18 16:13:19;;;;;;;0.00;0.00;;;34.90;47.00;;;;;;5136984;27;20263;-78
2021/06/18 16:15:47;;;;;;;0.00;0.00;;;35.40;46.30;;;;;;5137468;27;20230;-76
2021/06/18 16:18:15;;;;;;;0.00;0.00;;;35.50;46.20;;;;;;5139091;27;20225;-77
2021/06/18 16:20:45;;;;;;;0.10;0.10;;;35.60;46.00;;;;;;5135171;27;20203;-77
2021/06/18 16:23:13;;;;;;;0.10;0.10;;;35.50;46.00;;;;;;5136397;27;20247;-77
2021/06/18 16:25:47;;;;;;;0.00;0.00;;;36.00;46.40;;;;;;5138750;27;20303;-77
2021/06/18 16:28:15;;;;;;;0.00;0.00;;;36.00;46.30;;;;;;5138001;27;20518;-79
2021/06/18 16:30:43;;;;;;;0.10;0.10;;;35.90;46.00;;;;;;5133090;27;20195;-77
2021/06/18 16:33:11;;;;;;;0.10;0.10;;;35.90;47.90;;;;;;5132945;27;20677;-77
2021/06/18 16:35:39;;;;;;;0.00;0.00;;;35.50;46.00;;;;;;5134379;27;20225;-76
2021/06/18 16:38:09;;;;;;;0.00;0.00;;;35.10;46.80;;;;;;5133534;27;20836;-78
2021/06/18 16:40:37;;;;;;;0.10;0.10;;;34.90;47.50;;;;;;5134140;27;20252;-76
2021/06/18 16:43:06;;;;;;;0.10;0.10;;;34.90;47.50;;;;;;5133590;27;20338;-77
2021/06/18 16:45:34;;;;;;;0.00;0.00;;;35.00;49.70;;;;;;5139608;27;20276;-80
2021/06/18 16:48:02;;;;;;;0.00;0.00;;;35.00;52.80;;;;;;5136253;27;20195;-77
2021/06/18 16:50:29;;;;;;;0.00;0.00;;;34.60;53.10;;;;;;5137974;27;20204;-82
2021/06/18 16:52:57;;;;;;;0.30;0.30;;;34.20;53.20;;;;;;5140750;27;20194;-78
2021/06/18 16:55:27;;;;;;;0.10;0.10;;;34.00;53.00;;;;;;5145330;27;20248;-78
2021/06/18 16:57:55;;;;;;;0.10;0.10;;;33.70;52.50;;;;;;5141475;27;20299;-78
2021/06/18 17:00:23;;;;;;;1.20;1.20;;;33.60;53.00;;;;;;5128973;27;20253;-73
2021/06/18 17:02:51;;;;;;;0.10;0.10;;;33.80;52.80;;;;;;5131284;27;20255;-73
2021/06/18 17:05:19;;;;;;;0.43;0.43;;;33.80;52.40;;;;;;5133488;27;20237;-77
2021/06/18 17:07:49;;;;;;;0.20;0.20;;;33.70;53.70;;;;;;5133407;27;20186;-76
2021/06/18 17:10:25;;;;;;;2.03;2.03;;;33.60;53.40;;;;;;5114303;28;20199;-77
2021/06/18 17:13:35;;;;;;;4.50;4.40;;;33.80;53.80;;;;;;5117997;28;20732;-76
2021/06/18 17:16:05;;;;;;;3.70;3.60;;;34.80;51.10;;;;;;5120267;28;20686;-77
2021/06/18 17:18:34;;;;;;;3.33;3.22;;;35.90;49.80;;;;;;5125887;28;20271;-78
2021/06/18 17:21:03;;;;;;;2.53;2.53;;;37.00;48.10;;;;;;5140301;28;20195;-77